Time;durP1;ratioP1;P1;durP2;ratioP2;P2;SDS_P1;SDS_P2;PMS_P1;PMS_P2;Temp;Humidity;BMP_temperature;BMP_pressure;BME280_temperature;BME280_humidity;BME280_pressure;Samples;Min_cycle;Max_cycle;Signal;HPM_P1;HPM_P2
2021/01/24 00:01:03;;;;;;;12.68;5.72;;;2.30;99.90;;;;;;5066982;28;20524;-63
2021/01/24 00:03:40;;;;;;;14.07;5.75;;;2.20;99.90;;;;;;5061072;28;20055;-63
2021/01/24 00:06:25;;;;;;;12.18;6.22;;;2.20;99.90;;;;;;5071848;28;20123;-62
2021/01/24 00:12:31;;;;;;;10.73;5.55;;;2.20;99.90;;;;;;5054752;28;20061;-63
2021/01/24 00:16:02;;;;;;;11.93;6.43;;;2.20;99.90;;;;;;4999563;28;20409;-63
2021/01/24 00:18:33;;;;;;;12.02;5.68;;;2.20;99.90;;;;;;5033533;28;20041;-63
2021/01/24 00:21:05;;;;;;;11.77;5.57;;;2.20;99.90;;;;;;5038846;28;20535;-63
2021/01/24 00:23:38;;;;;;;16.02;6.72;;;2.20;99.90;;;;;;5033212;28;20049;-63
2021/01/24 00:26:03;;;;;;;10.27;5.75;;;2.30;99.90;;;;;;5036946;28;20041;-63
2021/01/24 00:28:44;;;;;;;12.18;7.07;;;2.20;99.90;;;;;;5037002;28;20100;-63
2021/01/24 00:35:18;;;;;;;11.07;5.78;;;2.20;99.90;;;;;;5041757;28;20032;-63
2021/01/24 00:38:33;;;;;;;10.88;5.72;;;2.30;99.90;;;;;;5018871;28;20112;-63
2021/01/24 00:41:05;;;;;;;9.15;4.57;;;2.30;99.90;;;;;;5040036;28;20127;-63
2021/01/24 00:43:33;;;;;;;12.35;5.60;;;2.40;99.90;;;;;;5056603;28;20052;-63
2021/01/24 00:46:07;;;;;;;15.90;6.60;;;2.40;99.90;;;;;;5039161;28;20045;-63
2021/01/24 00:48:36;;;;;;;12.30;5.90;;;2.30;99.90;;;;;;5038479;28;20091;-63
2021/01/24 00:51:05;;;;;;;11.60;5.22;;;2.40;99.90;;;;;;5039636;28;20042;-63
2021/01/24 00:53:33;;;;;;;11.63;5.03;;;2.40;99.90;;;;;;5045911;28;20156;-63
2021/01/24 00:56:05;;;;;;;10.63;5.25;;;2.40;99.90;;;;;;5039624;28;20485;-63
2021/01/24 00:58:43;;;;;;;13.57;5.55;;;2.50;99.90;;;;;;5040833;28;20049;-63
2021/01/24 01:01:15;;;;;;;9.68;4.88;;;2.50;99.90;;;;;;5033858;28;20524;-63
2021/01/24 01:03:56;;;;;;;10.75;5.47;;;2.40;99.90;;;;;;5036753;28;20041;-63
2021/01/24 01:06:23;;;;;;;11.07;5.38;;;2.50;99.90;;;;;;5037529;28;20042;-63
2021/01/24 01:09:14;;;;;;;10.98;5.13;;;2.50;99.90;;;;;;5054894;28;20473;-63
2021/01/24 01:11:42;;;;;;;12.35;5.18;;;2.50;99.90;;;;;;5044706;28;20400;-63
2021/01/24 01:22:01;;;;;;;9.07;4.28;;;2.50;99.90;;;;;;5043940;28;20492;-62
2021/01/24 01:24:45;;;;;;;10.85;4.97;;;2.60;99.90;;;;;;5076160;28;20040;-63
2021/01/24 01:31:19;;;;;;;8.43;4.45;;;2.60;99.90;;;;;;5035821;28;20049;-63
2021/01/24 01:33:45;;;;;;;10.63;4.97;;;2.60;99.90;;;;;;5060242;28;20115;-63
2021/01/24 01:36:23;;;;;;;8.65;5.35;;;2.60;99.90;;;;;;5055439;28;20077;-63
2021/01/24 01:38:57;;;;;;;10.68;5.25;;;2.60;99.90;;;;;;5035511;28;20102;-63
2021/01/24 01:41:51;;;;;;;10.07;4.57;;;2.60;99.90;;;;;;5072426;28;20067;-62
2021/01/24 01:44:23;;;;;;;10.75;5.22;;;2.60;99.90;;;;;;5057057;28;20076;-63
2021/01/24 01:46:57;;;;;;;16.73;5.80;;;2.60;99.90;;;;;;5069742;28;20052;-63
2021/01/24 01:49:36;;;;;;;8.68;4.63;;;2.60;99.90;;;;;;5070485;28;20495;-63
2021/01/24 01:52:03;;;;;;;8.02;4.15;;;2.60;99.90;;;;;;5055474;28;20037;-63
2021/01/24 01:54:35;;;;;;;10.18;4.65;;;2.60;99.90;;;;;;5048370;28;20041;-64
2021/01/24 01:57:05;;;;;;;7.72;4.72;;;2.60;99.90;;;;;;5045469;28;20102;-63
2021/01/24 01:59:32;;;;;;;7.72;4.13;;;2.50;99.90;;;;;;5061326;28;20106;-63
2021/01/24 02:02:38;;;;;;;11.30;5.13;;;2.50;99.90;;;;;;5071249;28;20045;-63
2021/01/24 02:05:43;;;;;;;9.50;4.82;;;2.50;99.90;;;;;;5059332;28;20048;-63
2021/01/24 02:11:54;;;;;;;7.50;3.97;;;2.50;99.90;;;;;;5063977;28;20040;-63
2021/01/24 02:14:38;;;;;;;9.27;4.53;;;2.50;99.90;;;;;;5044495;28;20100;-63
2021/01/24 02:17:18;;;;;;;8.77;4.50;;;2.50;99.90;;;;;;5049941;28;20105;-63
2021/01/24 02:20:05;;;;;;;12.00;5.20;;;2.50;99.90;;;;;;5021029;28;20041;-63
2021/01/24 02:23:03;;;;;;;10.02;4.75;;;2.50;99.90;;;;;;5047796;28;20065;-63
2021/01/24 02:29:52;;;;;;;8.07;4.10;;;2.50;99.90;;;;;;5037155;28;20071;-63
2021/01/24 02:33:06;;;;;;;8.63;4.38;;;2.50;99.90;;;;;;5019164;28;20128;-63
2021/01/24 02:35:48;;;;;;;12.45;4.85;;;2.40;99.90;;;;;;5044924;28;20046;-63
2021/01/24 02:41:46;;;;;;;9.55;4.88;;;2.40;99.90;;;;;;5054179;28;20051;-63
2021/01/24 02:44:24;;;;;;;10.15;5.72;;;2.40;99.90;;;;;;5036461;28;20055;-63
2021/01/24 02:46:55;;;;;;;15.32;5.72;;;2.40;99.90;;;;;;5016138;28;20054;-63
2021/01/24 02:49:37;;;;;;;10.68;5.72;;;2.40;99.90;;;;;;5035478;28;20424;-63
2021/01/24 02:59:14;;;;;;;;;;;2.30;99.90;;;;;;5036615;28;20041;-63
2021/01/24 03:01:46;;;;;;;7.32;3.85;;;2.30;99.90;;;;;;5049651;28;19920;-63
2021/01/24 03:04:18;;;;;;;8.60;4.70;;;2.30;99.90;;;;;;5048445;28;20618;-63
2021/01/24 03:07:14;;;;;;;10.88;4.78;;;2.30;99.90;;;;;;5046274;28;20049;-63
2021/01/24 03:09:43;;;;;;;12.65;5.85;;;2.30;99.90;;;;;;5004714;28;20440;-63
2021/01/24 03:12:10;;;;;;;9.27;4.85;;;2.30;99.90;;;;;;5045232;28;20092;-64
2021/01/24 03:15:27;;;;;;;10.65;4.97;;;2.20;99.90;;;;;;5060710;28;20074;-63
2021/01/24 03:17:56;;;;;;;9.43;4.93;;;2.20;99.90;;;;;;5051861;28;20045;-64
2021/01/24 03:24:17;;;;;;;9.88;5.15;;;2.20;99.90;;;;;;5034068;28;20043;-63
2021/01/24 03:26:45;;;;;;;10.00;4.47;;;2.20;99.90;;;;;;5060163;28;20547;-64
2021/01/24 03:29:45;;;;;;;10.80;5.22;;;2.20;99.90;;;;;;5073482;28;20406;-64
2021/01/24 03:32:17;;;;;;;10.40;5.30;;;2.20;99.90;;;;;;5073812;28;20521;-64
2021/01/24 03:35:02;;;;;;;11.52;5.32;;;2.20;99.90;;;;;;5050953;28;20048;-63
2021/01/24 03:41:43;;;;;;;9.23;4.75;;;2.20;99.90;;;;;;5063721;28;20044;-63
2021/01/24 03:44:16;;;;;;;9.52;4.80;;;2.20;99.90;;;;;;5033491;28;20140;-64
2021/01/24 03:46:43;;;;;;;13.38;5.57;;;2.20;99.90;;;;;;5064740;28;20446;-64
2021/01/24 03:49:14;;;;;;;13.77;6.07;;;2.10;99.90;;;;;;5057701;28;20037;-64
2021/01/24 03:52:14;;;;;;;10.35;5.38;;;2.20;99.90;;;;;;5053483;28;20235;-64
2021/01/24 03:54:55;;;;;;;11.00;5.22;;;2.20;99.90;;;;;;5061083;28;20037;-64
2021/01/24 03:57:46;;;;;;;11.85;5.82;;;2.20;99.90;;;;;;5039122;28;20101;-63
2021/01/24 04:04:13;;;;;;;11.32;5.10;;;2.20;99.90;;;;;;5053581;28;20036;-63
2021/01/24 04:06:48;;;;;;;9.90;4.88;;;2.20;99.90;;;;;;5037194;28;20048;-64
2021/01/24 04:09:42;;;;;;;10.18;5.25;;;2.20;99.90;;;;;;5051202;28;20045;-63
2021/01/24 04:20:12;;;;;;;8.02;3.33;;;2.20;99.90;;;;;;5029096;28;20049;-63
2021/01/24 04:26:42;;;;;;;10.25;3.75;;;2.20;99.90;;;;;;5039264;28;20031;-63
2021/01/24 04:29:14;;;;;;;9.77;4.30;;;2.20;99.90;;;;;;5046419;28;20147;-64
2021/01/24 04:31:44;;;;;;;8.90;4.45;;;2.20;99.90;;;;;;5012113;28;20432;-64
2021/01/24 04:34:15;;;;;;;9.20;4.78;;;2.20;99.90;;;;;;5047449;28;20167;-64
2021/01/24 04:36:43;;;;;;;9.85;4.53;;;2.20;99.90;;;;;;5052766;28;20041;-64
2021/01/24 04:39:18;;;;;;;9.60;5.15;;;2.20;99.90;;;;;;5031101;28;20504;-64
2021/01/24 04:41:47;;;;;;;8.13;3.92;;;2.20;99.90;;;;;;5034602;28;20386;-62
2021/01/24 04:44:21;;;;;;;11.52;4.72;;;2.20;99.90;;;;;;5056404;28;20040;-64
2021/01/24 04:47:19;;;;;;;10.27;4.07;;;2.20;99.90;;;;;;5049786;28;20067;-63
2021/01/24 04:50:05;;;;;;;9.18;3.72;;;2.20;99.90;;;;;;5048168;28;20044;-64
2021/01/24 04:52:32;;;;;;;9.82;4.30;;;2.30;99.90;;;;;;5053191;28;20124;-63
2021/01/24 04:54:59;;;;;;;13.88;5.30;;;2.20;99.90;;;;;;5041388;28;20045;-63
2021/01/24 05:01:49;;;;;;;10.27;3.78;;;2.20;99.90;;;;;;5020680;28;20040;-63
2021/01/24 05:04:27;;;;;;;9.07;5.13;;;2.30;99.90;;;;;;5045144;28;20048;-64
2021/01/24 05:06:53;;;;;;;10.73;5.28;;;2.20;99.90;;;;;;5001495;28;20054;-64
2021/01/24 05:09:22;;;;;;;10.63;4.72;;;2.20;99.90;;;;;;5040897;28;20073;-64
2021/01/24 05:12:24;;;;;;;11.15;5.30;;;2.30;99.90;;;;;;5050590;28;20045;-63
2021/01/24 05:14:50;;;;;;;8.77;3.97;;;2.30;99.90;;;;;;5045471;28;20063;-64
2021/01/24 05:21:43;;;;;;;5.43;3.13;;;2.30;99.90;;;;;;5053046;28;20063;-63
2021/01/24 05:24:20;;;;;;;9.35;3.67;;;2.30;99.90;;;;;;5035687;28;20504;-64
2021/01/24 05:26:55;;;;;;;8.27;3.88;;;2.30;99.90;;;;;;5066797;28;20468;-63
2021/01/24 05:33:06;;;;;;;8.10;3.97;;;2.20;99.90;;;;;;5053984;28;20083;-63
2021/01/24 05:39:52;;;;;;;6.93;3.85;;;2.20;99.90;;;;;;5067935;28;20035;-63
2021/01/24 05:42:24;;;;;;;9.27;4.75;;;2.20;99.90;;;;;;5062395;28;20112;-64
2021/01/24 05:45:29;;;;;;;8.93;4.07;;;2.20;99.90;;;;;;5058516;28;20053;-64
2021/01/24 05:48:05;;;;;;;9.80;4.05;;;2.10;99.90;;;;;;5067749;28;20040;-64
2021/01/24 05:50:34;;;;;;;11.77;4.72;;;2.10;99.90;;;;;;5060113;28;20045;-64
2021/01/24 05:53:04;;;;;;;8.45;4.30;;;2.10;99.90;;;;;;5060576;28;20040;-64
2021/01/24 05:55:36;;;;;;;8.25;4.43;;;2.10;99.90;;;;;;5059824;28;20036;-64
2021/01/24 05:58:21;;;;;;;9.43;4.40;;;2.10;99.90;;;;;;5074834;28;20048;-64
2021/01/24 06:00:56;;;;;;;7.72;4.25;;;2.20;99.90;;;;;;5042907;28;20515;-63
2021/01/24 06:03:23;;;;;;;7.97;3.95;;;2.10;99.90;;;;;;5068578;28;20041;-64
2021/01/24 06:09:57;;;;;;;7.10;3.25;;;2.10;99.90;;;;;;5060368;28;20058;-63
2021/01/24 06:12:29;;;;;;;6.78;3.00;;;2.10;99.90;;;;;;5051810;28;20116;-63
2021/01/24 06:15:03;;;;;;;6.68;3.15;;;2.10;99.90;;;;;;5033798;28;20076;-64
2021/01/24 06:17:40;;;;;;;6.97;3.17;;;2.10;99.90;;;;;;5051760;28;20064;-63
2021/01/24 06:20:39;;;;;;;6.65;2.92;;;2.10;99.90;;;;;;5053774;28;20041;-64
2021/01/24 06:27:29;;;;;;;6.00;2.55;;;2.10;99.90;;;;;;5053533;28;20099;-63
2021/01/24 06:30:16;;;;;;;6.45;2.63;;;2.00;99.90;;;;;;5046382;28;20066;-63
2021/01/24 06:33:12;;;;;;;4.68;2.42;;;2.00;99.90;;;;;;5055394;28;20045;-64
2021/01/24 06:35:59;;;;;;;5.40;2.55;;;2.00;99.90;;;;;;5044215;28;20047;-64
2021/01/24 06:38:36;;;;;;;6.97;3.25;;;2.00;99.90;;;;;;5043008;28;20503;-63
2021/01/24 06:44:57;;;;;;;9.88;2.67;;;1.90;99.90;;;;;;5073831;28;20044;-63
2021/01/24 06:48:12;;;;;;;7.47;3.30;;;1.90;99.90;;;;;;5071966;28;20044;-63
2021/01/24 06:54:57;;;;;;;7.00;2.58;;;2.00;99.90;;;;;;5058509;28;20107;-64
2021/01/24 06:57:35;;;;;;;9.85;2.42;;;2.00;99.90;;;;;;5050362;28;20047;-64
2021/01/24 07:07:32;;;;;;;4.90;2.53;;;2.10;99.90;;;;;;5058982;28;20051;-63
2021/01/24 07:10:35;;;;;;;4.78;2.00;;;2.10;99.90;;;;;;5053665;28;20049;-64
2021/01/24 07:20:21;;;;;;;3.40;1.58;;;2.10;99.90;;;;;;5037257;28;20049;-64
2021/01/24 07:22:48;;;;;;;6.38;2.10;;;2.20;99.90;;;;;;5050556;28;20037;-64
2021/01/24 07:25:19;;;;;;;4.57;2.05;;;2.20;99.90;;;;;;5014312;28;20042;-64
2021/01/24 07:27:52;;;;;;;4.15;1.77;;;2.10;99.90;;;;;;5030698;28;20038;-64
2021/01/24 07:30:23;;;;;;;4.13;1.73;;;2.10;99.90;;;;;;5043668;28;20457;-63
2021/01/24 07:33:10;;;;;;;4.95;1.70;;;2.10;99.90;;;;;;5033305;28;20041;-64
2021/01/24 07:35:41;;;;;;;6.95;2.03;;;2.10;99.90;;;;;;5034030;28;20461;-64
2021/01/24 07:38:38;;;;;;;5.13;1.63;;;2.10;99.90;;;;;;5036002;28;20397;-64
2021/01/24 07:41:32;;;;;;;2.15;1.10;;;2.10;99.90;;;;;;5025464;28;20047;-64
2021/01/24 07:44:18;;;;;;;3.53;1.20;;;2.10;99.90;;;;;;5043667;28;20484;-63
2021/01/24 07:46:48;;;;;;;6.18;1.95;;;2.20;99.90;;;;;;5038150;28;20045;-63
2021/01/24 07:49:26;;;;;;;1.83;0.80;;;2.20;99.90;;;;;;5043074;28;20041;-63
2021/01/24 07:55:20;;;;;;;3.50;0.93;;;2.20;99.90;;;;;;5046484;28;20048;-64
2021/01/24 07:57:47;;;;;;;2.55;0.82;;;2.30;99.90;;;;;;5047909;28;20045;-64
2021/01/24 08:00:20;;;;;;;2.88;0.75;;;2.30;99.90;;;;;;5049498;28;20049;-64
2021/01/24 08:02:47;;;;;;;1.88;0.68;;;2.30;99.90;;;;;;5049136;28;20411;-63
2021/01/24 08:05:33;;;;;;;5.03;1.35;;;2.40;99.90;;;;;;5049420;28;20480;-64
2021/01/24 08:08:30;;;;;;;1.38;0.60;;;2.30;99.90;;;;;;5035091;28;20041;-64
2021/01/24 08:11:00;;;;;;;2.13;0.95;;;2.30;99.90;;;;;;5023054;28;20045;-64
2021/01/24 08:13:33;;;;;;;3.45;1.10;;;2.30;99.90;;;;;;5033176;28;20045;-64
2021/01/24 08:16:02;;;;;;;3.17;1.00;;;2.20;99.90;;;;;;5039789;28;20088;-65
2021/01/24 08:22:49;;;;;;;2.38;0.70;;;2.20;99.90;;;;;;5038432;28;20091;-65
2021/01/24 08:25:18;;;;;;;3.70;0.50;;;2.20;99.90;;;;;;5050772;28;20033;-65
2021/01/24 08:27:50;;;;;;;1.52;0.60;;;2.20;99.90;;;;;;5068689;28;20119;-65
2021/01/24 08:30:52;;;;;;;1.08;0.50;;;2.20;99.90;;;;;;5032963;28;20037;-64
2021/01/24 08:33:19;;;;;;;2.00;0.43;;;2.30;99.90;;;;;;5039224;28;20530;-63
2021/01/24 08:35:50;;;;;;;0.45;0.22;;;2.20;99.90;;;;;;5060882;28;20041;-64
2021/01/24 08:38:33;;;;;;;0.40;0.30;;;2.30;99.90;;;;;;5064325;28;20037;-64
2021/01/24 08:40:59;;;;;;;1.50;0.47;;;2.30;99.90;;;;;;5043086;28;20506;-64
2021/01/24 08:43:31;;;;;;;0.82;0.30;;;2.30;99.90;;;;;;5043429;28;20044;-64
2021/01/24 08:50:16;;;;;;;0.60;0.30;;;2.30;99.90;;;;;;5042093;28;20115;-64
2021/01/24 08:53:03;;;;;;;0.20;0.20;;;2.40;99.90;;;;;;5053895;28;20049;-64
2021/01/24 08:55:56;;;;;;;0.63;0.38;;;2.40;99.90;;;;;;5063604;28;20447;-65
2021/01/24 08:58:31;;;;;;;0.28;0.28;;;2.40;99.90;;;;;;5042702;28;20056;-64
2021/01/24 09:05:17;;;;;;;0.93;0.40;;;2.50;99.90;;;;;;5066252;28;20087;-64
2021/01/24 09:07:49;;;;;;;0.45;0.40;;;2.50;99.90;;;;;;5061649;28;20515;-64
2021/01/24 09:10:24;;;;;;;0.45;0.30;;;2.50;99.90;;;;;;5067435;28;20037;-64
2021/01/24 09:12:56;;;;;;;1.27;0.50;;;2.50;99.90;;;;;;5074187;28;20044;-64
2021/01/24 09:27:47;;;;;;;0.20;0.20;;;2.60;99.90;;;;;;5051672;28;20112;-64
2021/01/24 09:30:37;;;;;;;1.90;0.57;;;2.60;99.90;;;;;;5035645;28;20481;-64
2021/01/24 09:33:04;;;;;;;1.25;0.38;;;2.60;99.90;;;;;;5039829;28;20045;-63
2021/01/24 09:35:54;;;;;;;1.45;0.70;;;2.60;99.90;;;;;;5063636;28;20044;-64
2021/01/24 09:42:47;;;;;;;2.20;0.52;;;2.70;99.90;;;;;;5064118;28;20044;-64
2021/01/24 09:45:18;;;;;;;1.10;0.50;;;2.70;99.90;;;;;;5047770;28;20052;-64
2021/01/24 09:48:05;;;;;;;1.90;0.70;;;2.70;99.90;;;;;;5060730;28;20044;-64
2021/01/24 09:50:46;;;;;;;1.55;0.60;;;2.80;99.90;;;;;;5051899;28;20044;-64
2021/01/24 09:57:46;;;;;;;3.38;0.98;;;2.90;99.90;;;;;;5056869;28;20047;-64
2021/01/24 10:00:17;;;;;;;2.50;0.70;;;3.00;99.90;;;;;;5053623;28;20045;-64
2021/01/24 10:02:52;;;;;;;1.65;0.85;;;3.00;99.90;;;;;;5033980;28;20053;-63
2021/01/24 10:05:24;;;;;;;1.38;0.57;;;3.00;99.90;;;;;;5035084;28;20037;-63
2021/01/24 10:08:19;;;;;;;1.95;0.70;;;3.00;99.90;;;;;;5054709;28;20079;-63
2021/01/24 10:15:18;;;;;;;3.03;0.73;;;3.20;99.90;;;;;;5068176;28;20031;-64
2021/01/24 10:30:17;;;;;;;5.07;0.65;;;3.40;99.90;;;;;;5051481;28;20525;-64
2021/01/24 10:32:48;;;;;;;3.03;0.55;;;3.50;99.90;;;;;;5054314;28;20041;-64
2021/01/24 10:35:16;;;;;;;1.05;0.60;;;3.60;99.90;;;;;;5039394;28;20052;-64
2021/01/24 10:37:47;;;;;;;1.23;0.50;;;3.70;99.90;;;;;;5042937;28;20045;-64
2021/01/24 10:40:19;;;;;;;0.55;0.35;;;3.70;99.90;;;;;;5037210;28;20045;-64
2021/01/24 10:42:54;;;;;;;2.78;0.50;;;3.80;99.90;;;;;;5015145;28;20041;-64
2021/01/24 10:45:20;;;;;;;2.13;0.52;;;3.70;99.90;;;;;;5015281;28;20383;-64
2021/01/24 10:47:46;;;;;;;3.20;1.13;;;3.80;99.90;;;;;;5054095;28;20119;-65
2021/01/24 10:50:19;;;;;;;3.78;0.82;;;3.70;99.90;;;;;;5054063;28;20469;-65
2021/01/24 10:52:56;;;;;;;1.25;0.40;;;3.80;99.90;;;;;;5034384;28;20049;-65
2021/01/24 10:59:24;;;;;;;1.00;0.55;;;3.80;99.90;;;;;;5042192;28;20380;-64
2021/01/24 11:05:24;;;;;;;0.70;0.30;;;3.80;99.90;;;;;;5042236;28;20175;-64
2021/01/24 11:07:52;;;;;;;1.73;0.38;;;3.90;99.90;;;;;;5026406;28;20109;-64
2021/01/24 11:10:24;;;;;;;1.77;0.50;;;3.90;99.90;;;;;;5048036;28;20037;-64
2021/01/24 11:12:51;;;;;;;0.98;0.52;;;3.90;99.90;;;;;;5047187;28;20135;-64
2021/01/24 11:15:17;;;;;;;4.63;0.80;;;4.00;99.90;;;;;;5046379;28;20122;-63
2021/01/24 11:17:51;;;;;;;1.85;0.80;;;3.90;99.90;;;;;;5044437;28;20096;-64
2021/01/24 11:21:01;;;;;;;1.45;0.50;;;3.90;99.90;;;;;;5038430;28;20045;-64
2021/01/24 11:23:52;;;;;;;2.83;0.65;;;4.00;99.90;;;;;;5052942;28;20408;-63
2021/01/24 11:30:20;;;;;;;5.30;0.73;;;4.00;99.90;;;;;;5057425;28;20082;-64
2021/01/24 11:32:52;;;;;;;4.25;1.00;;;4.00;99.90;;;;;;5051169;28;20044;-64
2021/01/24 11:35:20;;;;;;;2.15;1.02;;;4.10;99.90;;;;;;5043811;28;20037;-64
2021/01/24 11:37:52;;;;;;;2.28;1.00;;;4.10;99.90;;;;;;5056809;28;20080;-64
2021/01/24 11:47:55;;;;;;;1.63;1.23;;;4.20;99.90;;;;;;5071635;28;20498;-64
2021/01/24 11:50:27;;;;;;;3.58;0.80;;;4.20;99.90;;;;;;5033227;28;20048;-64
2021/01/24 12:00:25;;;;;;;2.53;0.80;;;4.40;99.90;;;;;;5056530;28;20063;-64
2021/01/24 12:03:00;;;;;;;2.03;0.70;;;4.40;99.90;;;;;;5033491;28;20499;-63
2021/01/24 12:05:26;;;;;;;2.28;0.77;;;4.40;99.90;;;;;;5032918;28;20037;-63
2021/01/24 12:07:56;;;;;;;0.82;0.50;;;4.30;99.90;;;;;;5053258;28;20487;-63
2021/01/24 12:10:29;;;;;;;1.95;0.73;;;4.30;99.90;;;;;;5064911;28;20041;-63
2021/01/24 12:12:55;;;;;;;1.60;0.80;;;4.20;99.90;;;;;;5058931;28;20045;-63
2021/01/24 12:15:25;;;;;;;2.50;1.40;;;4.20;99.90;;;;;;5049799;28;20051;-63
2021/01/24 12:17:57;;;;;;;3.10;0.90;;;4.00;99.90;;;;;;5054931;28;20044;-64
2021/01/24 12:20:25;;;;;;;1.88;1.00;;;3.90;99.90;;;;;;5067895;28;20047;-64
2021/01/24 12:22:57;;;;;;;2.38;1.00;;;3.90;99.90;;;;;;5062807;28;20061;-64
2021/01/24 12:25:27;;;;;;;1.13;0.52;;;3.90;99.90;;;;;;5073341;28;20041;-63
2021/01/24 12:27:55;;;;;;;3.15;0.50;;;3.90;99.90;;;;;;5019396;28;20104;-64
2021/01/24 12:30:27;;;;;;;1.60;0.60;;;3.90;99.90;;;;;;5071867;28;20152;-64
2021/01/24 12:32:55;;;;;;;1.02;0.40;;;3.90;99.90;;;;;;5036764;28;20489;-64
2021/01/24 12:35:32;;;;;;;0.68;0.28;;;3.90;99.90;;;;;;5063866;28;20045;-64
2021/01/24 12:38:04;;;;;;;0.43;0.30;;;3.80;99.90;;;;;;5055353;28;20162;-64
2021/01/24 12:40:30;;;;;;;0.68;0.28;;;3.80;99.90;;;;;;5069166;28;20044;-63
2021/01/24 12:43:43;;;;;;;0.65;0.40;;;3.80;99.90;;;;;;5071263;28;20051;-65
2021/01/24 12:46:48;;;;;;;0.10;0.10;;;3.80;99.90;;;;;;5059868;28;20477;-63
2021/01/24 12:52:59;;;;;;;1.75;0.57;;;3.80;99.90;;;;;;5064967;28;20430;-64
2021/01/24 12:55:31;;;;;;;0.80;0.40;;;3.70;99.90;;;;;;5053499;28;20500;-64
2021/01/24 12:58:01;;;;;;;;;;;3.90;99.90;;;;;;5034399;28;20041;-64
2021/01/24 13:00:38;;;;;;;0.65;0.30;;;3.80;99.90;;;;;;5070011;28;20295;-64
2021/01/24 13:03:11;;;;;;;0.45;0.20;;;3.80;99.90;;;;;;5069078;28;20047;-64
2021/01/24 13:06:01;;;;;;;0.47;0.40;;;3.80;99.90;;;;;;5065474;28;20079;-64
2021/01/24 13:08:36;;;;;;;0.90;0.40;;;3.80;99.90;;;;;;5041010;28;20051;-64
2021/01/24 13:15:30;;;;;;;1.35;0.30;;;3.80;99.90;;;;;;5065605;28;20074;-64
2021/01/24 13:18:01;;;;;;;0.38;0.25;;;3.80;99.90;;;;;;5076395;28;20167;-65
2021/01/24 13:20:34;;;;;;;2.90;0.50;;;3.80;99.90;;;;;;5054229;28;20060;-64
2021/01/24 13:23:05;;;;;;;1.70;0.35;;;3.80;99.90;;;;;;5060918;28;20063;-64
2021/01/24 13:25:33;;;;;;;0.60;0.30;;;3.80;99.90;;;;;;5059727;28;20037;-65
2021/01/24 13:27:59;;;;;;;0.28;0.20;;;3.90;99.90;;;;;;5037973;28;20049;-65
2021/01/24 13:30:31;;;;;;;0.20;0.20;;;3.90;99.90;;;;;;5073988;28;20163;-64
2021/01/24 13:33:05;;;;;;;0.40;0.25;;;3.90;99.90;;;;;;5058482;28;20522;-65
2021/01/24 13:35:30;;;;;;;;;;;3.90;99.90;;;;;;5075449;28;20040;-65
2021/01/24 13:38:04;;;;;;;4.03;0.60;;;3.80;99.90;;;;;;5073849;28;19920;-64
2021/01/24 13:41:03;;;;;;;1.48;0.38;;;3.90;99.90;;;;;;5057167;28;20056;-64
2021/01/24 13:47:18;;;;;;;1.85;0.40;;;4.00;99.90;;;;;;5075004;28;20055;-64
2021/01/24 13:49:47;;;;;;;0.50;0.25;;;4.00;99.90;;;;;;5056064;28;20040;-63
2021/01/24 13:52:17;;;;;;;1.27;0.40;;;4.00;99.90;;;;;;5075626;28;20036;-64
2021/01/24 14:09:40;;;;;;;1.10;0.32;;;4.10;99.90;;;;;;5051511;28;20032;-64
2021/01/24 14:12:07;;;;;;;0.57;0.40;;;4.10;99.90;;;;;;5058987;28;20041;-64
2021/01/24 14:14:39;;;;;;;1.85;0.65;;;4.10;99.90;;;;;;5057949;28;20052;-64
2021/01/24 14:17:13;;;;;;;2.20;0.60;;;4.20;99.90;;;;;;5058503;28;20041;-64
2021/01/24 14:19:43;;;;;;;3.03;0.73;;;4.10;99.90;;;;;;5070344;28;20055;-64
2021/01/24 14:22:09;;;;;;;1.42;0.70;;;4.10;99.90;;;;;;5058520;28;20057;-65
2021/01/24 14:24:44;;;;;;;4.30;0.93;;;4.10;99.90;;;;;;5048445;28;20065;-65
2021/01/24 14:27:16;;;;;;;2.05;0.77;;;4.10;99.90;;;;;;5035780;28;20442;-65
2021/01/24 14:29:44;;;;;;;3.08;0.95;;;4.10;99.90;;;;;;5041798;28;20053;-65
2021/01/24 14:32:13;;;;;;;1.88;0.60;;;4.00;99.90;;;;;;4995106;28;20042;-64
2021/01/24 14:34:57;;;;;;;1.08;0.60;;;4.10;99.90;;;;;;5004988;28;20038;-64
2021/01/24 14:37:30;;;;;;;2.25;0.70;;;4.00;99.90;;;;;;5016197;28;20042;-65
2021/01/24 14:40:21;;;;;;;1.15;0.65;;;4.00;99.90;;;;;;5038483;28;20061;-65
2021/01/24 14:42:59;;;;;;;1.73;0.80;;;4.00;99.90;;;;;;5031668;28;20401;-64
2021/01/24 14:45:25;;;;;;;2.28;0.70;;;4.00;99.90;;;;;;5026392;28;20072;-65
2021/01/24 14:47:59;;;;;;;0.65;0.38;;;3.90;99.90;;;;;;5041137;28;20487;-66
2021/01/24 14:54:42;;;;;;;1.42;0.43;;;3.90;99.90;;;;;;5017532;28;20080;-64
2021/01/24 14:57:25;;;;;;;2.10;0.50;;;3.80;99.90;;;;;;5014273;28;20497;-65
2021/01/24 14:59:59;;;;;;;1.20;0.50;;;3.80;99.90;;;;;;5045323;28;20057;-64
2021/01/24 15:02:39;;;;;;;;;;;3.80;99.90;;;;;;5025637;28;20060;-65
2021/01/24 15:05:32;;;;;;;2.92;0.50;;;3.70;99.90;;;;;;5048169;28;20261;-64
2021/01/24 15:08:44;;;;;;;1.45;0.57;;;3.70;99.90;;;;;;5028757;28;20079;-64
2021/01/24 15:12:06;;;;;;;0.77;0.47;;;3.60;99.90;;;;;;5038739;28;20424;-62
2021/01/24 15:14:51;;;;;;;1.58;0.68;;;3.60;99.90;;;;;;5052994;28;20056;-62
2021/01/24 15:17:19;;;;;;;1.42;0.73;;;3.60;99.90;;;;;;5044932;28;20041;-61
2021/01/24 15:19:48;;;;;;;1.75;0.75;;;3.50;99.90;;;;;;5038268;28;20048;-62
2021/01/24 15:22:22;;;;;;;1.33;0.70;;;3.60;99.90;;;;;;5036172;28;20120;-62
2021/01/24 15:29:51;;;;;;;2.42;0.57;;;3.60;99.90;;;;;;5069536;28;20033;-64
2021/01/24 15:32:19;;;;;;;0.43;0.40;;;3.60;99.90;;;;;;5062409;28;20045;-62
2021/01/24 15:34:54;;;;;;;1.13;0.65;;;3.60;99.90;;;;;;5070000;28;20484;-63
2021/01/24 15:37:44;;;;;;;2.10;0.50;;;3.60;99.90;;;;;;5068270;28;20114;-63
2021/01/24 15:40:24;;;;;;;1.77;0.57;;;3.50;99.90;;;;;;5062777;28;20045;-62
2021/01/24 15:43:00;;;;;;;3.05;0.57;;;3.50;99.90;;;;;;5060822;28;20539;-63
2021/01/24 15:45:32;;;;;;;1.20;0.70;;;3.40;99.90;;;;;;5043629;28;20040;-62
2021/01/24 15:52:18;;;;;;;2.50;0.60;;;3.30;99.90;;;;;;5067638;28;20062;-62
2021/01/24 15:54:49;;;;;;;1.33;0.70;;;3.20;99.90;;;;;;5048329;28;20124;-63
2021/01/24 15:57:23;;;;;;;2.10;0.60;;;3.10;99.90;;;;;;5033337;28;20037;-63
2021/01/24 15:59:49;;;;;;;1.45;0.52;;;3.10;99.90;;;;;;5032962;28;20119;-63
2021/01/24 16:02:30;;;;;;;1.00;0.60;;;3.00;99.90;;;;;;5070042;28;20507;-63
2021/01/24 16:05:05;;;;;;;1.75;0.57;;;3.00;99.90;;;;;;5076188;28;20117;-61
2021/01/24 16:07:33;;;;;;;2.45;0.88;;;2.90;99.90;;;;;;5071696;28;20051;-62
2021/01/24 16:10:05;;;;;;;1.63;0.77;;;2.90;99.90;;;;;;5058129;28;20041;-63
2021/01/24 16:12:37;;;;;;;1.38;0.80;;;2.80;99.90;;;;;;5071123;28;20094;-63
2021/01/24 16:15:21;;;;;;;1.63;0.70;;;2.80;99.90;;;;;;5072235;28;20045;-62
2021/01/24 16:17:57;;;;;;;;;;;2.70;99.90;;;;;;5068631;28;20071;-62
2021/01/24 16:24:23;;;;;;;1.88;0.90;;;2.60;99.90;;;;;;5056557;28;20060;-63
2021/01/24 16:27:46;;;;;;;1.80;0.80;;;2.60;99.90;;;;;;5076937;28;20064;-63
2021/01/24 16:34:59;;;;;;;1.95;0.82;;;2.60;99.90;;;;;;5063143;28;20032;-62
2021/01/24 16:37:49;;;;;;;2.42;1.08;;;2.60;99.90;;;;;;5061968;28;20103;-62
2021/01/24 16:40:33;;;;;;;2.10;0.98;;;2.50;99.90;;;;;;5068657;28;20045;-63
2021/01/24 16:43:08;;;;;;;3.85;0.95;;;2.50;99.90;;;;;;5071522;28;20040;-63
2021/01/24 16:45:36;;;;;;;6.65;1.38;;;2.40;99.90;;;;;;5056888;28;20041;-62
2021/01/24 16:52:28;;;;;;;2.35;1.20;;;2.30;99.90;;;;;;5057455;28;20047;-62
2021/01/24 16:55:00;;;;;;;3.70;1.55;;;2.30;99.90;;;;;;5047304;28;20063;-64
2021/01/24 16:57:28;;;;;;;2.90;1.30;;;2.30;99.90;;;;;;5035832;28;20432;-65
2021/01/24 17:00:10;;;;;;;2.85;1.35;;;2.30;99.90;;;;;;5047206;28;20449;-65
2021/01/24 17:02:36;;;;;;;3.15;1.65;;;2.20;99.90;;;;;;5036578;28;20423;-63
2021/01/24 17:05:08;;;;;;;2.65;1.17;;;2.20;99.90;;;;;;5071593;28;20055;-64
2021/01/24 17:08:09;;;;;;;4.47;1.50;;;2.20;99.90;;;;;;5060318;28;20048;-64
2021/01/24 17:10:41;;;;;;;3.20;1.30;;;2.20;99.90;;;;;;5060739;28;20055;-64
2021/01/24 17:17:29;;;;;;;3.53;1.45;;;2.10;99.90;;;;;;5070843;28;20120;-66
2021/01/24 17:20:05;;;;;;;3.45;1.15;;;2.20;99.90;;;;;;5070704;28;20044;-66
2021/01/24 17:22:33;;;;;;;3.33;1.45;;;2.10;99.90;;;;;;5066978;28;20092;-66
2021/01/24 17:24:59;;;;;;;6.45;1.90;;;2.10;99.90;;;;;;5061774;28;20408;-64
2021/01/24 17:28:10;;;;;;;3.97;1.88;;;2.10;99.90;;;;;;5062048;28;20043;-65
2021/01/24 17:30:44;;;;;;;3.05;1.52;;;2.20;99.90;;;;;;5060089;28;20044;-65
2021/01/24 17:33:10;;;;;;;6.68;2.40;;;2.20;99.90;;;;;;5072292;28;20163;-65
2021/01/24 17:35:44;;;;;;;4.90;1.67;;;2.20;99.90;;;;;;5044371;28;20072;-65
2021/01/24 17:38:22;;;;;;;4.28;2.00;;;2.30;99.90;;;;;;5071352;28;20044;-65
2021/01/24 17:40:50;;;;;;;6.07;2.58;;;2.30;99.90;;;;;;5059474;28;20044;-66
2021/01/24 17:43:22;;;;;;;5.43;2.78;;;2.40;99.90;;;;;;5060033;28;20072;-65
2021/01/24 17:45:53;;;;;;;7.85;3.58;;;2.40;99.90;;;;;;5071198;28;20041;-65
2021/01/24 17:48:50;;;;;;;6.43;3.05;;;2.40;99.90;;;;;;5074529;28;20067;-65
2021/01/24 17:55:40;;;;;;;3.92;1.90;;;2.40;99.90;;;;;;5060924;28;20040;-65